Time;durP1;ratioP1;P1;durP2;ratioP2;P2;SDS_P1;SDS_P2;PMS_P1;PMS_P2;Temp;Humidity;BMP_temperature;BMP_pressure;BME280_temperature;BME280_humidity;BME280_pressure;Samples;Min_cycle;Max_cycle;Signal;HPM_P1;HPM_P2
2020/12/15 00:00:58;;;;;;;;;;;;;;;;;;5035816;28;19999;-43
2020/12/15 00:03:23;;;;;;;;;;;;;;;;;;5035117;28;19955;-43
2020/12/15 00:05:48;;;;;;;;;;;;;;;;;;5035831;28;19909;-43
2020/12/15 00:08:13;;;;;;;;;;;;;;;;;;5036041;28;19999;-43
2020/12/15 00:10:38;;;;;;;;;;;;;;;;;;5035664;28;19913;-43
2020/12/15 00:13:03;;;;;;;;;;;;;;;;;;5035130;28;19959;-43
2020/12/15 00:15:28;;;;;;;;;;;;;;;;;;5035632;28;20037;-44
2020/12/15 00:17:54;;;;;;;;;;;;;;;;;;5036141;28;19909;-43
2020/12/15 00:20:19;;;;;;;;;;;;;;;;;;5035898;28;20039;-46
2020/12/15 00:22:44;;;;;;;;;;;;;;;;;;5034571;28;20362;-42
2020/12/15 00:25:09;;;;;;;;;;;;;;;;;;5035505;28;19987;-44
2020/12/15 00:27:34;;;;;;;;;;;;;;;;;;5035645;28;20271;-44
2020/12/15 00:29:59;;;;;;;;;;;;;;;;;;5035849;28;20404;-44
2020/12/15 00:32:24;;;;;;;;;;;;;;;;;;5033542;28;20405;-43
2020/12/15 00:34:49;;;;;;;;;;;;;;;;;;5035668;28;19909;-44
2020/12/15 00:37:14;;;;;;;;;;;;;;;;;;5035597;28;19909;-42
2020/12/15 00:39:40;;;;;;;;;;;;;;;;;;5035609;28;20016;-44
2020/12/15 00:42:05;;;;;;;;;;;;;;;;;;5034554;28;20019;-42
2020/12/15 00:44:30;;;;;;;;;;;;;;;;;;5035096;28;19992;-42
2020/12/15 00:46:55;;;;;;;;;;;;;;;;;;5035543;28;19940;-43
2020/12/15 00:49:20;;;;;;;;;;;;;;;;;;5035462;28;20366;-43
2020/12/15 00:51:45;;;;;;;;;;;;;;;;;;5035285;28;19905;-43
2020/12/15 00:54:10;;;;;;;;;;;;;;;;;;5034276;28;19920;-44
2020/12/15 00:56:35;;;;;;;;;;;;;;;;;;5035391;28;19906;-43
2020/12/15 00:59:00;;;;;;;;;;;;;;;;;;5032108;28;19992;-44
2020/12/15 01:01:25;;;;;;;;;;;;;;;;;;5034419;28;20272;-43
2020/12/15 01:03:51;;;;;;;;;;;;;;;;;;5034493;28;20013;-44
2020/12/15 01:06:16;;;;;;;;;;;;;;;;;;5034302;28;20003;-46
2020/12/15 01:08:41;;;;;;;;;;;;;;;;;;5035108;28;20274;-42
2020/12/15 01:11:06;;;;;;;;;;;;;;;;;;5034974;28;19964;-44
2020/12/15 01:13:31;;;;;;;;;;;;;;;;;;5034236;28;19909;-43
2020/12/15 01:15:56;;;;;;;;;;;;;;;;;;5034984;28;19909;-43
2020/12/15 01:18:21;;;;;;;;;;;;;;;;;;5034991;28;19913;-43
2020/12/15 01:20:46;;;;;;;;;;;;;;;;;;5034480;28;19920;-44
2020/12/15 01:23:11;;;;;;;;;;;;;;;;;;5033961;28;19921;-43
2020/12/15 01:25:37;;;;;;;;;;;;;;;;;;5035935;28;19913;-44
2020/12/15 01:28:02;;;;;;;;;;;;;;;;;;5034712;28;19913;-43
2020/12/15 01:30:27;;;;;;;;;;;;;;;;;;5034541;28;20008;-42
2020/12/15 01:32:52;;;;;;;;;;;;;;;;;;5032198;28;20047;-44
2020/12/15 01:35:18;;;;;;;;;;;;;;;;;;5034688;28;19948;-43
2020/12/15 01:37:43;;;;;;;;;;;;;;;;;;5034888;28;19998;-44
2020/12/15 01:40:08;;;;;;;;;;;;;;;;;;5034369;28;19944;-42
2020/12/15 01:42:33;;;;;;;;;;;;;;;;;;5033455;28;19916;-44
2020/12/15 01:44:58;;;;;;;;;;;;;;;;;;5034514;28;20163;-42
2020/12/15 01:47:24;;;;;;;;;;;;;;;;;;5034120;28;19979;-44
2020/12/15 01:49:49;;;;;;;;;;;;;;;;;;5034306;28;20325;-46
2020/12/15 01:52:14;;;;;;;;;;;;;;;;;;5033812;28;19909;-44
2020/12/15 01:54:39;;;;;;;;;;;;;;;;;;5034076;28;20329;-45
2020/12/15 01:57:04;;;;;;;;;;;;;;;;;;5034096;28;20321;-43
2020/12/15 01:59:29;;;;;;;;;;;;;;;;;;5034361;28;20370;-43
2020/12/15 02:01:54;;;;;;;;;;;;;;;;;;5034230;28;19913;-42
2020/12/15 02:04:19;;;;;;;;;;;;;;;;;;5033834;28;20332;-44
2020/12/15 02:06:44;;;;;;;;;;;;;;;;;;5034122;28;20384;-43
2020/12/15 02:09:10;;;;;;;;;;;;;;;;;;5034320;28;20004;-44
2020/12/15 02:11:35;;;;;;;;;;;;;;;;;;5034099;28;19910;-44
2020/12/15 02:14:00;;;;;;;;;;;;;;;;;;5033143;28;19909;-44
2020/12/15 02:16:25;;;;;;;;;;;;;;;;;;5033563;28;20390;-44
2020/12/15 02:18:50;;;;;;;;;;;;;;;;;;5034195;28;20005;-44
2020/12/15 02:21:15;;;;;;;;;;;;;;;;;;5033681;28;20015;-44
2020/12/15 02:23:40;;;;;;;;;;;;;;;;;;5033009;28;19937;-43
2020/12/15 02:26:05;;;;;;;;;;;;;;;;;;5033759;28;19951;-44
2020/12/15 02:28:30;;;;;;;;;;;;;;;;;;5033592;28;19956;-43
2020/12/15 02:30:56;;;;;;;;;;;;;;;;;;5033790;28;20004;-42
2020/12/15 02:33:21;;;;;;;;;;;;;;;;;;5031189;28;19936;-43
2020/12/15 02:35:46;;;;;;;;;;;;;;;;;;5033867;28;19916;-43
2020/12/15 02:38:11;;;;;;;;;;;;;;;;;;5033905;28;19913;-44
2020/12/15 02:40:36;;;;;;;;;;;;;;;;;;5033723;28;19953;-45
2020/12/15 02:43:01;;;;;;;;;;;;;;;;;;5033158;28;19963;-43
2020/12/15 02:45:26;;;;;;;;;;;;;;;;;;5033658;28;19940;-45
2020/12/15 02:47:51;;;;;;;;;;;;;;;;;;5033597;28;19951;-43
2020/12/15 02:50:16;;;;;;;;;;;;;;;;;;5033549;28;20378;-44
2020/12/15 02:52:41;;;;;;;;;;;;;;;;;;5032835;28;20385;-43
2020/12/15 02:55:07;;;;;;;;;;;;;;;;;;5033671;28;19909;-44
2020/12/15 02:57:32;;;;;;;;;;;;;;;;;;5033648;28;19916;-43
2020/12/15 02:59:57;;;;;;;;;;;;;;;;;;5033433;28;19916;-43
2020/12/15 03:02:22;;;;;;;;;;;;;;;;;;5032467;28;19917;-43
2020/12/15 03:04:47;;;;;;;;;;;;;;;;;;5033716;28;19910;-44
2020/12/15 03:07:12;;;;;;;;;;;;;;;;;;5033420;28;19909;-43
2020/12/15 03:09:37;;;;;;;;;;;;;;;;;;5033206;28;19991;-43
2020/12/15 03:12:02;;;;;;;;;;;;;;;;;;5032733;28;19909;-42
2020/12/15 03:14:27;;;;;;;;;;;;;;;;;;5033075;28;20259;-43
2020/12/15 03:16:53;;;;;;;;;;;;;;;;;;5033232;28;19909;-43
2020/12/15 03:19:18;;;;;;;;;;;;;;;;;;5032251;28;19909;-44
2020/12/15 03:21:43;;;;;;;;;;;;;;;;;;5032519;28;20011;-43
2020/12/15 03:24:08;;;;;;;;;;;;;;;;;;5032549;28;19948;-42
2020/12/15 03:26:33;;;;;;;;;;;;;;;;;;5032796;28;20280;-43
2020/12/15 03:28:58;;;;;;;;;;;;;;;;;;5034404;28;19909;-43
2020/12/15 03:31:23;;;;;;;;;;;;;;;;;;5037184;28;20503;-45
2020/12/15 03:33:49;;;;;;;;;;;;;;;;;;5034587;28;19999;-44
2020/12/15 03:36:14;;;;;;;;;;;;;;;;;;5036574;28;19972;-44
2020/12/15 03:38:39;;;;;;;;;;;;;;;;;;5036820;28;19910;-44
2020/12/15 03:41:04;;;;;;;;;;;;;;;;;;5036736;28;20389;-43
2020/12/15 03:43:29;;;;;;;;;;;;;;;;;;5036309;28;19995;-42
2020/12/15 03:45:54;;;;;;;;;;;;;;;;;;5036792;28;20282;-42
2020/12/15 03:48:19;;;;;;;;;;;;;;;;;;5036506;28;19909;-43
2020/12/15 03:50:45;;;;;;;;;;;;;;;;;;5036970;28;19920;-44
2020/12/15 03:53:10;;;;;;;;;;;;;;;;;;5035972;28;19910;-45
2020/12/15 03:55:35;;;;;;;;;;;;;;;;;;5036760;28;19909;-44
2020/12/15 03:58:00;;;;;;;;;;;;;;;;;;5036233;28;19909;-45
2020/12/15 04:00:25;;;;;;;;;;;;;;;;;;5036046;28;19932;-42
2020/12/15 04:02:50;;;;;;;;;;;;;;;;;;5035636;28;20309;-44
2020/12/15 04:05:15;;;;;;;;;;;;;;;;;;5036267;28;20294;-43
2020/12/15 04:07:40;;;;;;;;;;;;;;;;;;5036564;28;19909;-43
2020/12/15 04:10:05;;;;;;;;;;;;;;;;;;5036381;28;19909;-43
2020/12/15 04:12:30;;;;;;;;;;;;;;;;;;5035524;28;19910;-43
2020/12/15 04:14:56;;;;;;;;;;;;;;;;;;5036107;28;19955;-41
2020/12/15 04:17:21;;;;;;;;;;;;;;;;;;5035891;28;19909;-44
2020/12/15 04:19:46;;;;;;;;;;;;;;;;;;5035795;28;19909;-43
2020/12/15 04:22:11;;;;;;;;;;;;;;;;;;5035146;28;19964;-43
2020/12/15 04:24:36;;;;;;;;;;;;;;;;;;5035878;28;19941;-43
2020/12/15 04:27:01;;;;;;;;;;;;;;;;;;5035978;28;19948;-43
2020/12/15 04:29:26;;;;;;;;;;;;;;;;;;5035992;28;19955;-43
2020/12/15 04:31:51;;;;;;;;;;;;;;;;;;5033945;28;19916;-44
2020/12/15 04:34:17;;;;;;;;;;;;;;;;;;5035043;28;20344;-43
2020/12/15 04:36:42;;;;;;;;;;;;;;;;;;5035709;28;20374;-43
2020/12/15 04:39:07;;;;;;;;;;;;;;;;;;5035870;28;19909;-45
2020/12/15 04:41:32;;;;;;;;;;;;;;;;;;5035309;28;20108;-44
2020/12/15 04:43:57;;;;;;;;;;;;;;;;;;5034785;28;19933;-44
2020/12/15 04:46:22;;;;;;;;;;;;;;;;;;5035489;28;19920;-44
2020/12/15 04:48:47;;;;;;;;;;;;;;;;;;5035575;28;19909;-44
2020/12/15 04:51:12;;;;;;;;;;;;;;;;;;5035230;28;20361;-43
2020/12/15 04:53:37;;;;;;;;;;;;;;;;;;5034865;28;19909;-44
2020/12/15 04:56:03;;;;;;;;;;;;;;;;;;5035148;28;20358;-42
2020/12/15 04:58:28;;;;;;;;;;;;;;;;;;5034884;28;19913;-44
2020/12/15 05:00:53;;;;;;;;;;;;;;;;;;5035121;28;19955;-42
2020/12/15 05:03:18;;;;;;;;;;;;;;;;;;5034549;28;19963;-43
2020/12/15 05:05:43;;;;;;;;;;;;;;;;;;5035097;28;20045;-42
2020/12/15 05:08:08;;;;;;;;;;;;;;;;;;5035338;28;20344;-44
2020/12/15 05:10:33;;;;;;;;;;;;;;;;;;5035098;28;20348;-43
2020/12/15 05:12:58;;;;;;;;;;;;;;;;;;5034375;28;20430;-42
2020/12/15 05:15:23;;;;;;;;;;;;;;;;;;5034777;28;20007;-43
2020/12/15 05:17:49;;;;;;;;;;;;;;;;;;5035290;28;20331;-42
2020/12/15 05:20:14;;;;;;;;;;;;;;;;;;5034811;28;19932;-44
2020/12/15 05:22:39;;;;;;;;;;;;;;;;;;5034081;28;19928;-43
2020/12/15 05:25:04;;;;;;;;;;;;;;;;;;5035190;28;19909;-45
2020/12/15 05:27:32;;;;;;;;;;;;;;;;;;5034587;28;19916;-42
2020/12/15 05:29:57;;;;;;;;;;;;;;;;;;5035195;28;19909;-43
2020/12/15 05:32:22;;;;;;;;;;;;;;;;;;5031902;28;19909;-42
2020/12/15 05:34:48;;;;;;;;;;;;;;;;;;5034760;28;19923;-42
2020/12/15 05:37:13;;;;;;;;;;;;;;;;;;5034600;28;19916;-43
2020/12/15 05:39:38;;;;;;;;;;;;;;;;;;5034808;28;19909;-42
2020/12/15 05:42:03;;;;;;;;;;;;;;;;;;5033886;28;19920;-43
2020/12/15 05:44:28;;;;;;;;;;;;;;;;;;5034394;28;20004;-43
2020/12/15 05:46:53;;;;;;;;;;;;;;;;;;5034725;28;19905;-41
2020/12/15 05:49:18;;;;;;;;;;;;;;;;;;5034116;28;19967;-45
2020/12/15 05:51:44;;;;;;;;;;;;;;;;;;5034176;28;19995;-43
2020/12/15 05:54:09;;;;;;;;;;;;;;;;;;5033687;28;19948;-45
2020/12/15 05:56:34;;;;;;;;;;;;;;;;;;5034387;28;19936;-42
2020/12/15 05:58:59;;;;;;;;;;;;;;;;;;5034374;28;19949;-44
2020/12/15 06:01:24;;;;;;;;;;;;;;;;;;5036570;28;19913;-43
2020/12/15 06:03:49;;;;;;;;;;;;;;;;;;5033564;28;19917;-43
2020/12/15 06:06:14;;;;;;;;;;;;;;;;;;5034350;28;19959;-42
2020/12/15 06:08:39;;;;;;;;;;;;;;;;;;5033943;28;19909;-44
2020/12/15 06:11:04;;;;;;;;;;;;;;;;;;5033911;28;20370;-42
2020/12/15 06:13:30;;;;;;;;;;;;;;;;;;5033788;28;19913;-43
2020/12/15 06:15:55;;;;;;;;;;;;;;;;;;5034016;28;19909;-43
2020/12/15 06:18:20;;;;;;;;;;;;;;;;;;5034110;28;19909;-43
2020/12/15 06:20:45;;;;;;;;;;;;;;;;;;5033524;28;19913;-41
2020/12/15 06:23:10;;;;;;;;;;;;;;;;;;5033212;28;19910;-43
2020/12/15 06:25:35;;;;;;;;;;;;;;;;;;5033608;28;19918;-42
2020/12/15 06:28:00;;;;;;;;;;;;;;;;;;5029990;28;19913;-44
2020/12/15 06:30:25;;;;;;;;;;;;;;;;;;5033138;28;19913;-44
2020/12/15 06:32:50;;;;;;;;;;;;;;;;;;5027445;28;19920;-44
2020/12/15 06:35:15;;;;;;;;;;;;;;;;;;5012916;28;19988;-44
2020/12/15 06:37:41;;;;;;;;;;;;;;;;;;5020572;28;19909;-43
2020/12/15 06:40:06;;;;;;;;;;;;;;;;;;5014473;28;19910;-44
2020/12/15 06:42:32;;;;;;;;;;;;;;;;;;5031433;28;19964;-42
2020/12/15 06:44:57;;;;;;;;;;;;;;;;;;5031902;28;19941;-43
2020/12/15 06:47:22;;;;;;;;;;;;;;;;;;5032224;28;19956;-43
2020/12/15 06:49:47;;;;;;;;;;;;;;;;;;5032299;28;19944;-45
2020/12/15 06:52:12;;;;;;;;;;;;;;;;;;5031706;28;19957;-42
2020/12/15 06:54:37;;;;;;;;;;;;;;;;;;5017040;28;19933;-41
2020/12/15 06:57:02;;;;;;;;;;;;;;;;;;5011722;28;20389;-45
2020/12/15 06:59:27;;;;;;;;;;;;;;;;;;5012199;28;20322;-43
2020/12/15 07:01:52;;;;;;;;;;;;;;;;;;5018550;28;19925;-46
2020/12/15 07:04:17;;;;;;;;;;;;;;;;;;5032728;28;19939;-42
2020/12/15 07:06:43;;;;;;;;;;;;;;;;;;5036386;28;19913;-45
2020/12/15 07:09:09;;;;;;;;;;;;;;;;;;5036709;28;19912;-42
2020/12/15 07:11:34;;;;;;;;;;;;;;;;;;5034999;28;19909;-42
2020/12/15 07:13:59;;;;;;;;;;;;;;;;;;5034471;28;19913;-44
2020/12/15 07:16:24;;;;;;;;;;;;;;;;;;5035478;28;20305;-44
2020/12/15 07:18:49;;;;;;;;;;;;;;;;;;5036326;28;20003;-43
2020/12/15 07:21:15;;;;;;;;;;;;;;;;;;5016830;28;20386;-44
2020/12/15 07:23:40;;;;;;;;;;;;;;;;;;5015468;28;19975;-43
2020/12/15 07:26:05;;;;;;;;;;;;;;;;;;5033007;23;19925;-41
2020/12/15 07:28:30;;;;;;;;;;;;;;;;;;5032866;28;19910;-38
2020/12/15 07:30:55;;;;;;;;;;;;;;;;;;5033357;28;20333;-39
2020/12/15 07:33:20;;;;;;;;;;;;;;;;;;5032610;28;20333;-39
2020/12/15 07:35:45;;;;;;;;;;;;;;;;;;5032856;28;20365;-40
2020/12/15 07:38:10;;;;;;;;;;;;;;;;;;5031583;28;20379;-38
2020/12/15 07:40:35;;;;;;;;;;;;;;;;;;5033629;28;20323;-38
2020/12/15 07:43:00;;;;;;;;;;;;;;;;;;5032626;28;20456;-41
2020/12/15 07:45:26;;;;;;;;;;;;;;;;;;5021131;28;20015;-38
2020/12/15 07:47:51;;;;;;;;;;;;;;;;;;5012358;28;19924;-39
2020/12/15 07:50:16;;;;;;;;;;;;;;;;;;5013516;28;20417;-39
2020/12/15 07:52:41;;;;;;;;;;;;;;;;;;5012856;28;19910;-39
2020/12/15 07:55:06;;;;;;;;;;;;;;;;;;5013868;28;19921;-38
2020/12/15 07:57:32;;;;;;;;;;;;;;;;;;5012882;28;19976;-40
2020/12/15 07:59:57;;;;;;;;;;;;;;;;;;5013855;28;19923;-40
2020/12/15 08:02:22;;;;;;;;;;;;;;;;;;5014113;28;20353;-40
2020/12/15 08:04:47;;;;;;;;;;;;;;;;;;5014381;28;20005;-39
2020/12/15 08:07:12;;;;;;;;;;;;;;;;;;5014161;28;19909;-39
2020/12/15 08:09:37;;;;;;;;;;;;;;;;;;5014190;28;19921;-39
2020/12/15 08:12:02;;;;;;;;;;;;;;;;;;5013732;28;19909;-41
2020/12/15 08:14:27;;;;;;;;;;;;;;;;;;5013693;28;19914;-40
2020/12/15 08:16:53;;;;;;;;;;;;;;;;;;5014146;28;19909;-39
2020/12/15 08:19:18;;;;;;;;;;;;;;;;;;5014138;28;19916;-40
2020/12/15 08:21:46;;;;;;;;;;;;;;;;;;5012383;28;19936;-42
2020/12/15 08:24:11;;;;;;;;;;;;;;;;;;5026775;28;19913;-39
2020/12/15 08:26:36;;;;;;;;;;;;;;;;;;5033116;28;19921;-43
2020/12/15 08:29:01;;;;;;;;;;;;;;;;;;5034117;28;19909;-43
2020/12/15 08:31:26;;;;;;;;;;;;;;;;;;5024528;28;19981;-41
2020/12/15 08:33:53;;;;;;;;;;;;;;;;;;5011052;28;19916;-40
2020/12/15 08:36:18;;;;;;;;;;;;;;;;;;5013052;28;20654;-38
2020/12/15 08:38:43;;;;;;;;;;;;;;;;;;5013770;28;20279;-39
2020/12/15 08:41:08;;;;;;;;;;;;;;;;;;5013264;28;19964;-38
2020/12/15 08:43:33;;;;;;;;;;;;;;;;;;5013176;28;19936;-38
2020/12/15 08:45:58;;;;;;;;;;;;;;;;;;5030130;28;19909;-41
2020/12/15 08:48:23;;;;;;;;;;;;;;;;;;5033323;28;20446;-38
2020/12/15 08:50:49;;;;;;;;;;;;;;;;;;5033113;28;19910;-40
2020/12/15 08:53:15;;;;;;;;;;;;;;;;;;5032761;28;19916;-38
2020/12/15 08:55:40;;;;;;;;;;;;;;;;;;5033073;28;19977;-40
2020/12/15 08:58:05;;;;;;;;;;;;;;;;;;5032882;28;19909;-40
2020/12/15 09:00:35;;;;;;;;;;;;;;;;;;5033133;28;20369;-39
2020/12/15 09:03:00;;;;;;;;;;;;;;;;;;5032484;28;19913;-39
2020/12/15 09:05:25;;;;;;;;;;;;;;;;;;5033414;28;19916;-39
2020/12/15 09:07:51;;;;;;;;;;;;;;;;;;5033205;28;19909;-39
2020/12/15 09:10:16;;;;;;;;;;;;;;;;;;5029719;28;19909;-42
2020/12/15 09:12:41;;;;;;;;;;;;;;;;;;5032061;28;19920;-42
2020/12/15 09:15:06;;;;;;;;;;;;;;;;;;5033164;28;19909;-42
2020/12/15 09:17:31;;;;;;;;;;;;;;;;;;5032479;28;19910;-42
2020/12/15 09:19:56;;;;;;;;;;;;;;;;;;5032523;28;19932;-39
2020/12/15 09:22:23;;;;;;;;;;;;;;;;;;5032287;28;19913;-41
2020/12/15 09:24:48;;;;;;;;;;;;;;;;;;5027851;28;19993;-42
2020/12/15 09:27:13;;;;;;;;;;;;;;;;;;5017297;28;20000;-38
2020/12/15 09:29:38;;;;;;;;;;;;;;;;;;5032190;28;19936;-38
2020/12/15 09:32:03;;;;;;;;;;;;;;;;;;5032321;28;20298;-41
2020/12/15 09:34:28;;;;;;;;;;;;;;;;;;5030342;28;19909;-40
2020/12/15 09:36:56;;;;;;;;;;;;;;;;;;5031931;28;19915;-40
2020/12/15 09:39:21;;;;;;;;;;;;;;;;;;5032215;28;19916;-40
2020/12/15 09:41:46;;;;;;;;;;;;;;;;;;5032128;28;19913;-40
2020/12/15 09:44:11;;;;;;;;;;;;;;;;;;5029542;28;19909;-40
2020/12/15 09:46:36;;;;;;;;;;;;;;;;;;5011948;28;19916;-40
2020/12/15 09:49:01;;;;;;;;;;;;;;;;;;5012275;28;19910;-39
2020/12/15 09:51:26;;;;;;;;;;;;;;;;;;5012304;28;19914;-40
2020/12/15 09:53:51;;;;;;;;;;;;;;;;;;5011837;28;20287;-40
2020/12/15 09:56:17;;;;;;;;;;;;;;;;;;5011818;28;19948;-40
2020/12/15 09:58:42;;;;;;;;;;;;;;;;;;5012250;28;20397;-40
2020/12/15 10:01:07;;;;;;;;;;;;;;;;;;5012037;28;19920;-40
2020/12/15 10:03:32;;;;;;;;;;;;;;;;;;5011632;28;19991;-39
2020/12/15 10:05:57;;;;;;;;;;;;;;;;;;5011959;28;20181;-40
2020/12/15 10:08:22;;;;;;;;;;;;;;;;;;5012153;28;19937;-40
2020/12/15 10:10:48;;;;;;;;;;;;;;;;;;5011658;28;19910;-40
2020/12/15 10:13:13;;;;;;;;;;;;;;;;;;5011462;28;19909;-40
2020/12/15 10:15:38;;;;;;;;;;;;;;;;;;5010603;28;19909;-40
2020/12/15 10:18:04;;;;;;;;;;;;;;;;;;5011980;28;19909;-40
2020/12/15 10:20:29;;;;;;;;;;;;;;;;;;5011628;28;19909;-40
2020/12/15 10:22:54;;;;;;;;;;;;;;;;;;5009775;28;20379;-39
2020/12/15 10:25:20;;;;;;;;;;;;;;;;;;5011549;28;20334;-40
2020/12/15 10:27:45;;;;;;;;;;;;;;;;;;5012102;28;19913;-40
2020/12/15 10:30:10;;;;;;;;;;;;;;;;;;5011592;28;19936;-40
2020/12/15 10:32:35;;;;;;;;;;;;;;;;;;5010790;28;19936;-40
2020/12/15 10:35:01;;;;;;;;;;;;;;;;;;5011639;28;19909;-40
2020/12/15 10:37:26;;;;;;;;;;;;;;;;;;5011819;28;19909;-40
2020/12/15 10:39:54;;;;;;;;;;;;;;;;;;5015956;28;19956;-40
2020/12/15 10:42:19;;;;;;;;;;;;;;;;;;5015293;28;19937;-40
2020/12/15 10:44:44;;;;;;;;;;;;;;;;;;5022336;28;20374;-40
2020/12/15 10:47:09;;;;;;;;;;;;;;;;;;5035018;28;19913;-40
2020/12/15 10:49:35;;;;;;;;;;;;;;;;;;5035309;28;20047;-40
2020/12/15 10:52:01;;;;;;;;;;;;;;;;;;5035106;28;19996;-40
2020/12/15 10:54:27;;;;;;;;;;;;;;;;;;5034872;28;19921;-40
2020/12/15 10:56:52;;;;;;;;;;;;;;;;;;5034783;28;19910;-40
2020/12/15 10:59:17;;;;;;;;;;;;;;;;;;5034747;28;19909;-40
2020/12/15 11:01:43;;;;;;;;;;;;;;;;;;5035199;28;19983;-40
2020/12/15 11:04:08;;;;;;;;;;;;;;;;;;5034973;28;19909;-40
2020/12/15 11:06:36;;;;;;;;;;;;;;;;;;5034778;28;19909;-40
2020/12/15 11:09:01;;;;;;;;;;;;;;;;;;5034571;28;20375;-40
2020/12/15 11:11:26;;;;;;;;;;;;;;;;;;5035155;28;19940;-40
2020/12/15 11:13:51;;;;;;;;;;;;;;;;;;5034348;28;19948;-40
2020/12/15 11:16:16;;;;;;;;;;;;;;;;;;5034640;28;19964;-40
2020/12/15 11:18:41;;;;;;;;;;;;;;;;;;5034585;28;19910;-40
2020/12/15 11:21:06;;;;;;;;;;;;;;;;;;5035072;28;19912;-40
2020/12/15 11:23:32;;;;;;;;;;;;;;;;;;5034123;28;20374;-40
2020/12/15 11:25:57;;;;;;;;;;;;;;;;;;5034185;28;19921;-40
2020/12/15 11:28:22;;;;;;;;;;;;;;;;;;5034707;28;19909;-40
2020/12/15 11:30:47;;;;;;;;;;;;;;;;;;5035135;28;19919;-40
2020/12/15 11:33:12;;;;;;;;;;;;;;;;;;5033655;28;19913;-40
2020/12/15 11:35:37;;;;;;;;;;;;;;;;;;5034206;28;19995;-40
2020/12/15 11:38:02;;;;;;;;;;;;;;;;;;5034592;28;20000;-40
2020/12/15 11:40:27;;;;;;;;;;;;;;;;;;5034188;28;20009;-40
2020/12/15 11:42:55;;;;;;;;;;;;;;;;;;5033842;28;20008;-41
2020/12/15 11:45:20;;;;;;;;;;;;;;;;;;5022891;28;19967;-40
2020/12/15 11:47:45;;;;;;;;;;;;;;;;;;5014588;28;19957;-40
2020/12/15 11:50:11;;;;;;;;;;;;;;;;;;5013526;28;19944;-40
2020/12/15 11:52:36;;;;;;;;;;;;;;;;;;5014465;28;19953;-40
2020/12/15 11:55:01;;;;;;;;;;;;;;;;;;5014331;28;19906;-40
2020/12/15 11:57:26;;;;;;;;;;;;;;;;;;5014332;28;19913;-40
2020/12/15 11:59:51;;;;;;;;;;;;;;;;;;5013932;28;19951;-40
2020/12/15 12:02:16;;;;;;;;;;;;;;;;;;5013890;28;20013;-39
2020/12/15 12:04:41;;;;;;;;;;;;;;;;;;5014670;28;19913;-40
2020/12/15 12:07:07;;;;;;;;;;;;;;;;;;5013941;28;19913;-40
2020/12/15 12:09:32;;;;;;;;;;;;;;;;;;5013747;28;20367;-40
2020/12/15 12:11:57;;;;;;;;;;;;;;;;;;5013567;28;19910;-40
2020/12/15 12:14:22;;;;;;;;;;;;;;;;;;5014087;28;19944;-40
2020/12/15 12:16:47;;;;;;;;;;;;;;;;;;5014054;28;19940;-40
2020/12/15 12:19:12;;;;;;;;;;;;;;;;;;5013790;28;19910;-40
2020/12/15 12:21:39;;;;;;;;;;;;;;;;;;5014046;28;19920;-40
2020/12/15 12:24:04;;;;;;;;;;;;;;;;;;5013490;28;20003;-40
2020/12/15 12:26:29;;;;;;;;;;;;;;;;;;5013400;28;20016;-39
2020/12/15 12:28:56;;;;;;;;;;;;;;;;;;5013626;28;20003;-39
2020/12/15 12:31:21;;;;;;;;;;;;;;;;;;5013788;28;20023;-40
2020/12/15 12:33:46;;;;;;;;;;;;;;;;;;5013205;28;20012;-39
2020/12/15 12:36:11;;;;;;;;;;;;;;;;;;5016839;28;20398;-38
2020/12/15 12:38:37;;;;;;;;;;;;;;;;;;5028782;28;20358;-39
2020/12/15 12:41:02;;;;;;;;;;;;;;;;;;5015194;28;20439;-41
2020/12/15 12:43:27;;;;;;;;;;;;;;;;;;5015713;28;20421;-39
2020/12/15 12:45:52;;;;;;;;;;;;;;;;;;5016906;28;20001;-40
2020/12/15 12:48:17;;;;;;;;;;;;;;;;;;5012980;28;20008;-39
2020/12/15 12:50:42;;;;;;;;;;;;;;;;;;5013670;28;19976;-41
2020/12/15 12:53:07;;;;;;;;;;;;;;;;;;5025001;28;19917;-39
2020/12/15 12:55:32;;;;;;;;;;;;;;;;;;5032520;28;19955;-39
2020/12/15 12:57:58;;;;;;;;;;;;;;;;;;5032927;28;20007;-39
2020/12/15 13:00:23;;;;;;;;;;;;;;;;;;5032654;28;20000;-40
2020/12/15 13:02:48;;;;;;;;;;;;;;;;;;5031373;28;20399;-40
2020/12/15 13:05:13;;;;;;;;;;;;;;;;;;5031167;28;19925;-39
2020/12/15 13:07:38;;;;;;;;;;;;;;;;;;5032966;28;19909;-39
2020/12/15 13:10:03;;;;;;;;;;;;;;;;;;5021426;28;19909;-37
2020/12/15 13:12:28;;;;;;;;;;;;;;;;;;5012584;28;19917;-40
2020/12/15 13:14:55;;;;;;;;;;;;;;;;;;5012968;28;19906;-39
2020/12/15 13:17:20;;;;;;;;;;;;;;;;;;5012995;28;19941;-39
2020/12/15 13:19:46;;;;;;;;;;;;;;;;;;5012492;28;19955;-39
2020/12/15 13:22:11;;;;;;;;;;;;;;;;;;5012200;28;20349;-41
2020/12/15 13:24:36;;;;;;;;;;;;;;;;;;5012473;28;20399;-39
2020/12/15 13:29:28;;;;;;;;;;;;;;;;;;5086109;22;19968;-43
2020/12/15 13:31:53;;;;;;;;;;;;;;;;;;5033402;28;19910;-43
2020/12/15 13:34:18;;;;;;;;;;;;;;;;;;5032108;28;19909;-46
2020/12/15 13:36:43;;;;;;;;;;;;;;;;;;5033857;28;19944;-44
2020/12/15 13:39:09;;;;;;;;;;;;;;;;;;5034185;28;19916;-42
2020/12/15 13:41:34;;;;;;;;;;;;;;;;;;5033680;28;20366;-41
2020/12/15 13:43:59;;;;;;;;;;;;;;;;;;5032486;28;19909;-43
2020/12/15 13:46:24;;;;;;;;;;;;;;;;;;5026194;28;20317;-45
2020/12/15 13:48:49;;;;;;;;;;;;;;;;;;5033904;28;19909;-46
2020/12/15 13:51:14;;;;;;;;;;;;;;;;;;5036400;28;20347;-45
2020/12/15 13:53:39;;;;;;;;;;;;;;;;;;5035600;28;20016;-45
2020/12/15 13:56:04;;;;;;;;;;;;;;;;;;5035762;28;20005;-44
2020/12/15 13:58:31;;;;;;;;;;;;;;;;;;5035376;28;19963;-45
2020/12/15 14:00:56;;;;;;;;;;;;;;;;;;5036310;28;20370;-44
2020/12/15 14:03:21;;;;;;;;;;;;;;;;;;5034832;28;20389;-44
2020/12/15 14:05:47;;;;;;;;;;;;;;;;;;5036003;28;19910;-43
2020/12/15 14:08:12;;;;;;;;;;;;;;;;;;5035162;28;19910;-47
2020/12/15 14:10:37;;;;;;;;;;;;;;;;;;5035194;28;20400;-44
2020/12/15 14:13:02;;;;;;;;;;;;;;;;;;5034687;28;19944;-46
2020/12/15 14:15:27;;;;;;;;;;;;;;;;;;5035791;28;19909;-43
2020/12/15 14:17:52;;;;;;;;;;;;;;;;;;5035573;28;19909;-45
2020/12/15 14:20:17;;;;;;;;;;;;;;;;;;5036219;28;20015;-44
2020/12/15 14:22:42;;;;;;;;;;;;;;;;;;5034502;28;19914;-44
2020/12/15 14:25:09;;;;;;;;;;;;;;;;;;5023792;28;20441;-46
2020/12/15 14:27:34;;;;;;;;;;;;;;;;;;5030981;28;19913;-46
2020/12/15 14:29:59;;;;;;;;;;;;;;;;;;5031703;28;20278;-42
2020/12/15 14:32:24;;;;;;;;;;;;;;;;;;5022974;28;19913;-44
2020/12/15 14:34:49;;;;;;;;;;;;;;;;;;5031224;28;19917;-43
2020/12/15 14:37:14;;;;;;;;;;;;;;;;;;5024580;28;20016;-47
2020/12/15 14:39:40;;;;;;;;;;;;;;;;;;5016186;28;20004;-42
2020/12/15 14:42:05;;;;;;;;;;;;;;;;;;5019028;28;20003;-46
2020/12/15 14:44:30;;;;;;;;;;;;;;;;;;5021753;28;19913;-44
2020/12/15 14:46:55;;;;;;;;;;;;;;;;;;5036890;28;19909;-46
2020/12/15 14:49:20;;;;;;;;;;;;;;;;;;5036966;28;19916;-45
2020/12/15 14:51:45;;;;;;;;;;;;;;;;;;5038756;28;19916;-47
2020/12/15 14:54:10;;;;;;;;;;;;;;;;;;5039817;28;19976;-48
2020/12/15 14:56:35;;;;;;;;;;;;;;;;;;5043736;28;19948;-49
2020/12/15 14:59:01;;;;;;;;;;;;;;;;;;5037091;28;20007;-51
2020/12/15 15:01:26;;;;;;;;;;;;;;;;;;5035944;28;19955;-45
2020/12/15 15:03:51;;;;;;;;;;;;;;;;;;5039954;28;19913;-49
2020/12/15 15:06:16;;;;;;;;;;;;;;;;;;5038828;28;19909;-45
2020/12/15 15:08:41;;;;;;;;;;;;;;;;;;5037882;28;19909;-50
2020/12/15 15:11:11;;;;;;;;;;;;;;;;;;5037952;28;19967;-48
2020/12/15 15:13:36;;;;;;;;;;;;;;;;;;5035827;28;19944;-47
2020/12/15 15:16:01;;;;;;;;;;;;;;;;;;5035535;28;19909;-47
2020/12/15 15:18:26;;;;;;;;;;;;;;;;;;5032125;28;19963;-44
2020/12/15 15:20:51;;;;;;;;;;;;;;;;;;5015988;28;19913;-45
2020/12/15 15:23:16;;;;;;;;;;;;;;;;;;5015742;28;19941;-43
2020/12/15 15:25:42;;;;;;;;;;;;;;;;;;5028278;28;19963;-44
2020/12/15 15:28:07;;;;;;;;;;;;;;;;;;5037416;28;19947;-43
2020/12/15 15:30:32;;;;;;;;;;;;;;;;;;5039029;28;19909;-41
2020/12/15 15:32:57;;;;;;;;;;;;;;;;;;5039094;28;19909;-46
2020/12/15 15:35:22;;;;;;;;;;;;;;;;;;5039303;28;19980;-42
2020/12/15 15:37:48;;;;;;;;;;;;;;;;;;5040163;28;20003;-46
2020/12/15 15:40:13;;;;;;;;;;;;;;;;;;5038967;28;19913;-44
2020/12/15 15:42:38;;;;;;;;;;;;;;;;;;5037334;28;20412;-45
2020/12/15 15:45:03;;;;;;;;;;;;;;;;;;5041685;28;19913;-42
2020/12/15 15:47:29;;;;;;;;;;;;;;;;;;5036746;28;19909;-42
2020/12/15 15:49:54;;;;;;;;;;;;;;;;;;5036113;28;19909;-43
2020/12/15 15:52:19;;;;;;;;;;;;;;;;;;5037909;28;19913;-48
2020/12/15 15:54:44;;;;;;;;;;;;;;;;;;5021375;28;19920;-44
2020/12/15 15:57:10;;;;;;;;;;;;;;;;;;5017126;28;19916;-44
2020/12/15 15:59:35;;;;;;;;;;;;;;;;;;5017448;28;19931;-46
2020/12/15 16:02:00;;;;;;;;;;;;;;;;;;5015774;28;19917;-45
2020/12/15 16:04:25;;;;;;;;;;;;;;;;;;5019090;28;19913;-45
2020/12/15 16:06:50;;;;;;;;;;;;;;;;;;5017766;28;19910;-47
2020/12/15 16:09:15;;;;;;;;;;;;;;;;;;5017395;28;19909;-44
2020/12/15 16:11:40;;;;;;;;;;;;;;;;;;5020799;28;19917;-44
2020/12/15 16:14:06;;;;;;;;;;;;;;;;;;5017620;28;20003;-41
2020/12/15 16:16:31;;;;;;;;;;;;;;;;;;5016888;28;19919;-46
2020/12/15 16:18:57;;;;;;;;;;;;;;;;;;5025388;28;19909;-44
2020/12/15 16:21:22;;;;;;;;;;;;;;;;;;5034487;28;19916;-43
2020/12/15 16:23:47;;;;;;;;;;;;;;;;;;5037431;28;19909;-43
2020/12/15 16:26:12;;;;;;;;;;;;;;;;;;5038789;28;19913;-45
2020/12/15 16:28:37;;;;;;;;;;;;;;;;;;5039172;28;20012;-47
2020/12/15 16:31:02;;;;;;;;;;;;;;;;;;5038749;28;19951;-45
2020/12/15 16:33:27;;;;;;;;;;;;;;;;;;5035582;28;19965;-45